createdAt,value
2022-08-20T00:00:23.817Z,94.02
2022-08-20T00:02:54.363Z,94.05
2022-08-20T00:05:26.649Z,94.13
2022-08-20T00:07:54.771Z,94.22
2022-08-20T00:10:23.795Z,94.27
2022-08-20T00:12:52.105Z,94.35
2022-08-20T00:15:25.885Z,94.42
2022-08-20T00:17:54.685Z,94.45
2022-08-20T00:20:26.041Z,94.49
2022-08-20T00:22:54.122Z,94.50
2022-08-20T00:25:22.244Z,94.56
2022-08-20T00:27:50.373Z,94.56
2022-08-20T00:30:18.992Z,94.60
2022-08-20T00:32:51.036Z,94.59
2022-08-20T00:35:21.348Z,94.62
2022-08-20T00:37:49.409Z,94.64
2022-08-20T00:40:23.279Z,94.67
2022-08-20T00:42:55.444Z,94.67
2022-08-20T00:45:23.428Z,94.69
2022-08-20T00:47:55.291Z,94.64
2022-08-20T00:50:28.675Z,94.66
2022-08-20T00:52:57.052Z,94.64
2022-08-20T00:55:31.082Z,94.61
2022-08-20T00:58:03.734Z,94.59
2022-08-20T01:00:32.936Z,94.57
2022-08-20T01:03:02.508Z,94.54
2022-08-20T01:05:31.079Z,94.49
2022-08-20T01:07:59.343Z,94.50
2022-08-20T01:10:29.701Z,94.54
2022-08-20T01:12:59.939Z,94.51
2022-08-20T01:15:31.748Z,94.48
2022-08-20T01:18:02.373Z,94.44
2022-08-20T01:20:34.109Z,94.38
2022-08-20T01:23:24.562Z,94.40
2022-08-20T01:25:55.734Z,94.37
2022-08-20T01:28:25.785Z,94.39
2022-08-20T01:30:54.672Z,94.34
2022-08-20T01:33:24.022Z,94.32
2022-08-20T01:35:53.451Z,94.32
2022-08-20T01:38:22.124Z,94.35
2022-08-20T01:41:15.318Z,94.38
2022-08-20T01:43:43.409Z,94.40
2022-08-20T01:46:11.802Z,94.40
2022-08-20T01:48:41.793Z,94.39
2022-08-20T01:51:13.621Z,94.37
2022-08-20T01:53:44.345Z,94.37
2022-08-20T01:56:17.619Z,94.36
2022-08-20T01:58:49.455Z,94.33
2022-08-20T02:01:26.164Z,94.29
2022-08-20T02:03:55.091Z,94.27
2022-08-20T02:06:25.674Z,94.26
2022-08-20T02:08:56.101Z,94.26
2022-08-20T02:11:25.623Z,94.26
2022-08-20T02:13:54.504Z,94.26
2022-08-20T02:16:25.553Z,94.29
2022-08-20T02:18:56.157Z,94.32
2022-08-20T02:21:25.199Z,94.33
2022-08-20T02:23:53.221Z,94.35
2022-08-20T02:26:21.501Z,94.34
2022-08-20T02:28:52.556Z,94.35
2022-08-20T02:31:22.316Z,94.36
2022-08-20T02:34:14.883Z,94.40
2022-08-20T02:36:39.731Z,94.42
2022-08-20T02:39:10.407Z,94.45
2022-08-20T02:41:39.534Z,94.47
2022-08-20T02:44:09.855Z,94.47
2022-08-20T02:46:38.356Z,94.55
2022-08-20T02:49:06.915Z,94.67
2022-08-20T02:51:35.002Z,94.67
2022-08-20T02:54:03.122Z,94.63
2022-08-20T02:56:31.112Z,94.63
2022-08-20T02:58:59.087Z,94.67
2022-08-20T03:01:28.558Z,94.60
2022-08-20T03:03:59.029Z,94.58
2022-08-20T03:06:27.354Z,94.58
2022-08-20T03:08:55.489Z,94.57
2022-08-20T03:11:23.504Z,94.57
2022-08-20T03:13:52.170Z,94.57
2022-08-20T03:16:20.206Z,94.57
2022-08-20T03:18:52.096Z,94.56
2022-08-20T03:21:20.393Z,94.57
2022-08-20T03:23:48.508Z,94.58
2022-08-20T03:26:17.389Z,94.59
2022-08-20T03:28:45.423Z,94.61
2022-08-20T03:31:17.433Z,94.62
2022-08-20T03:33:52.962Z,94.62
2022-08-20T03:36:28.731Z,94.62
2022-08-20T03:38:57.735Z,94.64
2022-08-20T03:41:26.079Z,94.70
2022-08-20T03:43:54.570Z,94.70
2022-08-20T03:46:23.663Z,94.71
2022-08-20T03:48:58.719Z,94.71
2022-08-20T03:51:29.850Z,94.75
2022-08-20T03:53:57.948Z,94.80
2022-08-20T03:56:26.834Z,94.83
2022-08-20T03:58:54.988Z,94.83
2022-08-20T04:01:44.460Z,94.83
2022-08-20T04:04:12.118Z,94.84
2022-08-20T04:06:42.410Z,94.85
2022-08-20T04:09:11.969Z,94.86
2022-08-20T04:11:40.704Z,94.92
2022-08-20T04:14:10.414Z,94.90
2022-08-20T04:16:40.531Z,94.93
2022-08-20T04:19:09.194Z,94.98
2022-08-20T04:21:37.882Z,94.96
2022-08-20T04:24:07.497Z,94.93
2022-08-20T04:26:37.251Z,95.04
2022-08-20T04:29:05.528Z,94.91
2022-08-20T04:31:34.734Z,94.86
2022-08-20T04:34:03.499Z,94.87
2022-08-20T04:36:31.617Z,94.79
2022-08-20T04:38:59.685Z,94.76
2022-08-20T04:41:29.053Z,94.66
2022-08-20T04:43:58.125Z,94.62
2022-08-20T04:46:28.746Z,94.48
2022-08-20T04:48:58.184Z,94.45
2022-08-20T04:51:26.886Z,94.42
2022-08-20T04:53:56.344Z,94.36
2022-08-20T04:56:26.285Z,94.36
2022-08-20T04:58:58.867Z,94.28
2022-08-20T05:01:27.331Z,94.29
2022-08-20T05:03:55.889Z,94.29
2022-08-20T05:06:28.577Z,94.24
2022-08-20T05:08:58.925Z,94.29
2022-08-20T05:11:33.088Z,94.31
2022-08-20T05:14:08.559Z,94.28
2022-08-20T05:16:41.117Z,94.37
2022-08-20T05:19:12.115Z,94.31
2022-08-20T05:21:40.910Z,94.30
2022-08-20T05:24:10.106Z,94.29
2022-08-20T05:26:38.255Z,94.30
2022-08-20T05:29:07.858Z,94.22
2022-08-20T05:31:36.214Z,94.19
2022-08-20T05:34:09.725Z,94.11
2022-08-20T05:36:39.656Z,94.14
2022-08-20T05:39:09.615Z,94.15
2022-08-20T05:41:37.913Z,94.13
2022-08-20T05:44:10.714Z,94.13
2022-08-20T05:46:40.796Z,94.11
2022-08-20T05:49:09.595Z,94.04
2022-08-20T05:51:37.806Z,94.04
2022-08-20T05:54:06.740Z,94.04
2022-08-20T05:56:35.267Z,94.03
2022-08-20T05:59:05.255Z,94.11
2022-08-20T06:01:36.707Z,93.92
2022-08-20T06:04:23.257Z,93.85
2022-08-20T06:06:52.747Z,93.78
2022-08-20T06:09:28.618Z,93.75
2022-08-20T06:12:02.228Z,93.71
2022-08-20T06:14:30.871Z,93.74
2022-08-20T06:17:05.554Z,93.76
2022-08-20T06:19:34.747Z,93.63
2022-08-20T06:22:08.642Z,93.58
2022-08-20T06:24:47.291Z,93.55
2022-08-20T06:27:16.719Z,93.56
2022-08-20T06:29:44.768Z,93.57
2022-08-20T06:32:14.272Z,93.62
2022-08-20T06:34:50.149Z,93.58
2022-08-20T06:37:21.802Z,93.52
2022-08-20T06:39:50.527Z,93.62
2022-08-20T06:42:20.931Z,93.68
2022-08-20T06:44:50.879Z,93.63
2022-08-20T06:47:21.651Z,93.56
2022-08-20T06:49:49.892Z,93.51
2022-08-20T06:52:18.661Z,93.47
2022-08-20T06:54:46.900Z,93.47
2022-08-20T06:57:14.972Z,93.46
2022-08-20T06:59:43.016Z,93.58
2022-08-20T07:02:11.106Z,93.55
2022-08-20T07:04:40.440Z,93.45
2022-08-20T07:07:16.878Z,93.37
2022-08-20T07:09:45.060Z,93.46
2022-08-20T07:12:13.131Z,93.47
2022-08-20T07:14:41.227Z,93.32
2022-08-20T07:17:11.358Z,93.25
2022-08-20T07:19:41.734Z,92.92
2022-08-20T07:22:09.721Z,92.59
2022-08-20T07:24:41.121Z,92.54
2022-08-20T07:27:10.036Z,92.42
2022-08-20T07:29:55.739Z,92.06
2022-08-20T07:32:36.875Z,91.73
2022-08-20T07:35:11.940Z,91.74
2022-08-20T07:37:41.481Z,91.65
2022-08-20T07:40:12.899Z,91.50
2022-08-20T07:42:41.448Z,91.36
2022-08-20T07:45:11.114Z,91.20
2022-08-20T07:47:39.368Z,90.77
2022-08-20T07:50:10.501Z,90.34
2022-08-20T07:52:38.520Z,90.00
2022-08-20T07:55:08.840Z,89.53
2022-08-20T07:57:37.498Z,89.42
2022-08-20T08:00:08.448Z,89.48
2022-08-20T08:02:37.268Z,89.13
2022-08-20T08:05:06.564Z,88.82
2022-08-20T08:07:36.559Z,88.47
2022-08-20T08:10:07.713Z,88.38
2022-08-20T08:12:38.744Z,88.25
2022-08-20T08:15:09.552Z,87.52
2022-08-20T08:17:38.703Z,87.08
2022-08-20T08:20:07.981Z,87.17
2022-08-20T08:22:37.291Z,86.20
2022-08-20T08:25:06.277Z,85.96
2022-08-20T08:27:34.373Z,85.62
2022-08-20T08:30:03.039Z,85.54
2022-08-20T08:32:32.251Z,86.05
2022-08-20T08:35:04.787Z,86.09
2022-08-20T08:37:32.798Z,86.08
2022-08-20T08:40:02.673Z,85.63
2022-08-20T08:42:40.047Z,85.26
2022-08-20T08:45:11.643Z,85.09
2022-08-20T08:47:41.254Z,84.55
2022-08-20T08:50:43.853Z,84.27
2022-08-20T08:53:17.342Z,83.26
2022-08-20T08:55:46.665Z,82.94
2022-08-20T08:58:17.040Z,83.12
2022-08-20T09:00:56.426Z,83.31
2022-08-20T09:03:32.801Z,83.20
2022-08-20T09:06:02.645Z,82.74
2022-08-20T09:08:34.092Z,82.34
2022-08-20T09:11:06.139Z,82.18
2022-08-20T09:13:34.480Z,81.74
2022-08-20T09:16:02.520Z,81.51
2022-08-20T09:18:30.480Z,81.29
2022-08-20T09:20:58.450Z,80.88
2022-08-20T09:23:26.402Z,80.49
2022-08-20T09:25:54.461Z,80.58
2022-08-20T09:28:23.739Z,80.39
2022-08-20T09:30:52.576Z,79.66
2022-08-20T09:33:20.661Z,79.69
2022-08-20T09:35:49.585Z,79.21
2022-08-20T09:38:17.722Z,78.86
2022-08-20T09:40:45.761Z,78.64
2022-08-20T09:43:13.865Z,78.22
2022-08-20T09:45:43.148Z,78.39
2022-08-20T09:48:11.180Z,78.54
2022-08-20T09:50:43.144Z,78.93
2022-08-20T09:53:11.928Z,78.42
2022-08-20T09:55:41.572Z,79.01
2022-08-20T09:58:16.633Z,79.57
2022-08-20T10:00:45.984Z,78.72
2022-08-20T10:03:13.980Z,77.88
2022-08-20T10:05:42.128Z,77.87
2022-08-20T10:08:11.381Z,78.26
2022-08-20T10:10:39.365Z,78.09
2022-08-20T10:13:07.371Z,79.00
2022-08-20T10:15:36.550Z,78.44
2022-08-20T10:18:07.803Z,78.58
2022-08-20T10:20:36.544Z,78.10
2022-08-20T10:23:05.413Z,78.00
2022-08-20T10:25:33.554Z,76.97
2022-08-20T10:28:01.534Z,76.80
2022-08-20T10:30:29.659Z,76.17
2022-08-20T10:32:57.659Z,76.36
2022-08-20T10:35:27.159Z,77.20
2022-08-20T10:37:55.369Z,76.06
2022-08-20T10:40:23.786Z,75.92
2022-08-20T10:42:52.095Z,75.74
2022-08-20T10:45:20.221Z,74.62
2022-08-20T10:47:48.223Z,74.24
2022-08-20T10:50:17.267Z,73.77
2022-08-20T10:52:47.251Z,74.05
2022-08-20T10:55:15.930Z,73.00
2022-08-20T10:57:44.969Z,72.80
2022-08-20T11:00:15.780Z,72.26
2022-08-20T11:02:44.050Z,72.55
2022-08-20T11:05:12.078Z,71.43
2022-08-20T11:07:54.854Z,70.94
2022-08-20T11:10:27.233Z,70.45
2022-08-20T11:12:55.435Z,69.58
2022-08-20T11:15:23.769Z,69.04
2022-08-20T11:17:51.782Z,69.14
2022-08-20T11:20:21.502Z,69.23
2022-08-20T11:22:49.536Z,69.38
2022-08-20T11:25:17.753Z,69.41
2022-08-20T11:27:49.212Z,69.38
2022-08-20T11:30:20.359Z,69.38
2022-08-20T11:32:48.393Z,69.88
2022-08-20T11:38:05.588Z,70.76
2022-08-20T11:40:35.565Z,72.30
2022-08-20T11:43:20.292Z,72.48
2022-08-20T11:45:51.035Z,73.40
2022-08-20T11:48:19.215Z,72.80
2022-08-20T11:50:47.776Z,73.16
2022-08-20T11:53:16.008Z,73.27
2022-08-20T11:55:44.650Z,73.18
2022-08-20T11:58:13.985Z,73.30
2022-08-20T12:00:42.444Z,73.52
2022-08-20T12:03:11.583Z,73.48
2022-08-20T12:05:41.199Z,73.79
2022-08-20T12:08:10.080Z,73.72
2022-08-20T12:10:53.423Z,74.43
2022-08-20T12:13:23.661Z,72.85
2022-08-20T12:15:59.881Z,73.45
2022-08-20T12:18:28.046Z,72.48
2022-08-20T12:20:56.106Z,72.70
2022-08-20T12:23:24.130Z,73.04
2022-08-20T12:25:52.112Z,72.75
2022-08-20T12:28:20.265Z,73.19
2022-08-20T12:30:55.371Z,72.53
2022-08-20T12:33:23.376Z,72.51
2022-08-20T12:35:51.652Z,72.93
2022-08-20T12:38:19.761Z,72.65
2022-08-20T12:40:47.810Z,73.14
2022-08-20T12:43:15.890Z,73.45
2022-08-20T12:45:43.908Z,73.44
2022-08-20T12:48:14.227Z,73.28
2022-08-20T12:50:45.632Z,73.95
2022-08-20T12:53:13.617Z,74.10
2022-08-20T12:55:41.654Z,74.37
2022-08-20T12:58:10.934Z,75.05
2022-08-20T13:00:43.236Z,75.74
2022-08-20T13:03:13.787Z,75.78
2022-08-20T13:05:42.052Z,76.23
2022-08-20T13:08:11.653Z,77.18
2022-08-20T13:10:45.611Z,77.13
2022-08-20T13:13:14.039Z,78.08
2022-08-20T13:15:42.313Z,79.07
2022-08-20T13:18:10.327Z,79.45
2022-08-20T13:20:39.627Z,79.99
2022-08-20T13:23:07.655Z,80.58
2022-08-20T13:25:35.701Z,81.26
2022-08-20T13:28:05.918Z,81.66
2022-08-20T13:30:35.012Z,82.13
2022-08-20T13:33:03.052Z,82.25
2022-08-20T13:35:31.528Z,82.63
2022-08-20T13:38:00.867Z,83.23
2022-08-20T13:40:29.253Z,83.42
2022-08-20T13:42:57.435Z,83.54
2022-08-20T13:45:25.625Z,83.72
2022-08-20T13:47:55.144Z,83.81
2022-08-20T13:50:25.371Z,83.86
2022-08-20T13:52:53.479Z,83.50
2022-08-20T13:55:24.754Z,84.02
2022-08-20T13:57:53.808Z,83.42
2022-08-20T14:00:30.956Z,83.31
2022-08-20T14:03:00.630Z,83.62
2022-08-20T14:05:28.912Z,83.47
2022-08-20T14:07:56.900Z,83.79
2022-08-20T14:10:31.318Z,83.95
2022-08-20T14:12:59.639Z,82.62
2022-08-20T14:15:27.807Z,82.14
2022-08-20T14:17:57.861Z,82.26
2022-08-20T14:20:29.111Z,81.20
2022-08-20T14:22:58.198Z,81.80
2022-08-20T14:25:28.064Z,81.94
2022-08-20T14:27:56.709Z,81.27
2022-08-20T14:30:27.905Z,81.37
2022-08-20T14:32:56.392Z,80.64
2022-08-20T14:35:24.759Z,79.78
2022-08-20T14:37:55.473Z,80.37
2022-08-20T14:40:24.973Z,79.98
2022-08-20T14:42:55.015Z,79.61
2022-08-20T14:45:23.531Z,79.20
2022-08-20T14:47:54.049Z,78.84
2022-08-20T14:50:25.042Z,78.29
2022-08-20T14:52:53.358Z,78.04
2022-08-20T14:55:23.654Z,78.64
2022-08-20T14:57:51.782Z,78.03
2022-08-20T15:00:23.935Z,78.29
2022-08-20T15:02:51.906Z,78.06
2022-08-20T15:05:20.075Z,77.80
2022-08-20T15:07:51.813Z,78.26
2022-08-20T15:10:24.644Z,77.88
2022-08-20T15:12:52.624Z,77.96
2022-08-20T15:15:22.513Z,78.31
2022-08-20T15:17:52.352Z,78.34
2022-08-20T15:20:22.756Z,78.62
2022-08-20T15:22:51.128Z,78.29
2022-08-20T15:25:23.018Z,78.57
2022-08-20T15:27:51.253Z,78.53
2022-08-20T15:30:21.043Z,79.17
2022-08-20T15:32:54.836Z,78.95
2022-08-20T15:35:23.844Z,79.16
2022-08-20T15:37:54.717Z,79.53
2022-08-20T15:40:28.080Z,79.48
2022-08-20T15:42:56.767Z,79.83
2022-08-20T15:45:25.265Z,79.51
2022-08-20T15:47:56.823Z,79.23
2022-08-20T15:50:57.215Z,79.74
2022-08-20T15:53:29.865Z,79.57
2022-08-20T15:56:03.281Z,79.36
2022-08-20T15:58:37.267Z,79.60
2022-08-20T16:01:24.663Z,79.22
2022-08-20T16:04:23.057Z,78.95
2022-08-20T16:06:53.707Z,78.95
2022-08-20T16:09:38.968Z,79.25
2022-08-20T16:12:11.333Z,79.12
2022-08-20T16:14:41.312Z,79.07
2022-08-20T16:17:11.113Z,78.97
2022-08-20T16:19:48.051Z,79.10
2022-08-20T16:22:17.472Z,79.12
2022-08-20T16:24:45.641Z,79.24
2022-08-20T16:27:18.158Z,79.41
2022-08-20T16:29:53.657Z,79.47
2022-08-20T16:32:37.634Z,79.54
2022-08-20T16:35:21.157Z,79.84
2022-08-20T16:37:57.282Z,80.04
2022-08-20T16:40:27.968Z,80.30
2022-08-20T16:42:58.542Z,80.37
2022-08-20T16:45:28.615Z,80.19
2022-08-20T16:48:01.195Z,80.46
2022-08-20T16:50:35.306Z,80.55
2022-08-20T16:53:03.251Z,80.65
2022-08-20T16:55:31.317Z,80.57
2022-08-20T16:57:59.408Z,80.80
2022-08-20T17:00:34.929Z,80.96
2022-08-20T17:03:05.527Z,81.11
2022-08-20T17:05:46.026Z,81.34
2022-08-20T17:08:21.598Z,81.45
2022-08-20T17:10:58.792Z,81.57
2022-08-20T17:13:30.168Z,81.71
2022-08-20T17:15:59.947Z,82.00
2022-08-20T17:18:31.631Z,82.10
2022-08-20T17:21:06.228Z,82.16
2022-08-20T17:23:54.824Z,82.28
2022-08-20T17:26:31.108Z,82.27
2022-08-20T17:29:01.482Z,82.42
2022-08-20T17:31:38.814Z,82.49
2022-08-20T17:34:14.480Z,82.43
2022-08-20T17:36:51.545Z,82.34
2022-08-20T17:39:21.445Z,82.39
2022-08-20T17:41:51.687Z,82.43
2022-08-20T17:44:22.323Z,82.45
2022-08-20T17:46:50.749Z,82.42
2022-08-20T17:49:21.161Z,82.51
2022-08-20T17:51:53.632Z,82.67
2022-08-20T17:54:22.932Z,82.53
2022-08-20T17:56:54.135Z,82.50
2022-08-20T17:59:59.799Z,82.59
2022-08-20T18:02:14.948Z,82.40
2022-08-20T18:04:44.007Z,82.15
2022-08-20T18:07:19.351Z,81.04
2022-08-20T18:09:51.824Z,80.30
2022-08-20T18:12:33.630Z,79.70
2022-08-20T18:15:10.169Z,79.58
2022-08-20T18:17:58.192Z,79.42
2022-08-20T18:20:40.427Z,79.38
2022-08-20T18:23:12.893Z,79.95
2022-08-20T18:25:45.841Z,79.71
2022-08-20T18:28:17.145Z,79.94
2022-08-20T18:30:50.666Z,80.34
2022-08-20T18:33:27.711Z,80.72
2022-08-20T18:36:05.758Z,80.88
2022-08-20T18:38:37.181Z,80.26
2022-08-20T18:41:15.013Z,80.59
2022-08-20T18:43:44.012Z,80.84
2022-08-20T18:46:22.190Z,81.09
2022-08-20T18:48:56.260Z,81.15
2022-08-20T18:51:30.099Z,81.14
2022-08-20T18:53:59.472Z,81.25
2022-08-20T18:56:36.848Z,81.43
2022-08-20T18:59:08.064Z,81.66
2022-08-20T19:01:38.003Z,81.86
2022-08-20T19:04:17.835Z,81.99
2022-08-20T19:06:49.242Z,82.16
2022-08-20T19:09:31.437Z,82.37
2022-08-20T19:12:07.548Z,82.69
2022-08-20T19:14:51.471Z,82.78
2022-08-20T19:17:26.782Z,83.03
2022-08-20T19:20:00.361Z,83.33
2022-08-20T19:22:28.704Z,83.59
2022-08-20T19:25:00.558Z,83.81
2022-08-20T19:27:29.726Z,84.09
2022-08-20T19:29:57.918Z,84.34
2022-08-20T19:32:28.067Z,84.48
2022-08-20T19:34:58.350Z,84.64
2022-08-20T19:37:39.999Z,84.75
2022-08-20T19:40:28.201Z,84.80
2022-08-20T19:42:58.045Z,84.79
2022-08-20T19:45:29.764Z,84.73
2022-08-20T19:48:27.544Z,84.66
2022-08-20T19:51:04.032Z,84.56
2022-08-20T19:53:34.405Z,84.60
2022-08-20T19:56:06.417Z,84.48
2022-08-20T19:58:35.685Z,84.65
2022-08-20T20:01:05.671Z,85.16
2022-08-20T20:03:35.599Z,85.20
2022-08-20T20:06:16.090Z,85.29
2022-08-20T20:08:51.345Z,85.26
2022-08-20T20:11:24.621Z,85.13
2022-08-20T20:13:53.144Z,85.00
2022-08-20T20:16:22.260Z,84.33
2022-08-20T20:19:03.982Z,84.49
2022-08-20T20:21:41.597Z,84.17
2022-08-20T20:24:10.147Z,83.89
2022-08-20T20:26:41.998Z,83.76
2022-08-20T20:29:13.258Z,83.68
2022-08-20T20:31:50.339Z,83.55
2022-08-20T20:34:19.540Z,83.72
2022-08-20T20:36:48.833Z,83.71
2022-08-20T20:39:30.307Z,83.66
2022-08-20T20:42:01.861Z,83.66
2022-08-20T20:44:37.137Z,83.81
2022-08-20T20:47:07.791Z,83.81
2022-08-20T20:49:49.302Z,83.97
2022-08-20T20:52:22.587Z,84.16
2022-08-20T20:54:50.712Z,84.24
2022-08-20T20:57:36.434Z,84.08
2022-08-20T21:00:09.321Z,84.24
2022-08-20T21:02:37.554Z,84.33
2022-08-20T21:05:06.342Z,84.35
2022-08-20T21:07:34.328Z,84.67
2022-08-20T21:10:02.280Z,84.70
2022-08-20T21:12:31.582Z,84.88
2022-08-20T21:14:59.535Z,85.06
2022-08-20T21:17:27.852Z,85.06
2022-08-20T21:19:55.856Z,85.13
2022-08-20T21:22:23.793Z,85.34
2022-08-20T21:24:51.778Z,85.55
2022-08-20T21:27:22.024Z,85.83
2022-08-20T21:29:51.933Z,85.81
2022-08-20T21:32:20.103Z,85.91
2022-08-20T21:34:48.801Z,85.95
2022-08-20T21:37:17.099Z,85.95
2022-08-20T21:39:45.522Z,86.04
2022-08-20T21:42:28.590Z,86.09
2022-08-20T21:44:59.028Z,86.09
2022-08-20T21:47:27.831Z,86.15
2022-08-20T21:49:55.856Z,86.38
2022-08-20T21:52:23.808Z,86.38
2022-08-20T21:54:53.207Z,86.46
2022-08-20T21:57:23.197Z,86.45
2022-08-20T21:59:51.305Z,86.46
2022-08-20T22:02:21.726Z,86.57
2022-08-20T22:04:53.861Z,86.56
2022-08-20T22:07:22.593Z,86.59
2022-08-20T22:09:50.558Z,86.69
2022-08-20T22:12:21.415Z,86.83
2022-08-20T22:14:49.528Z,87.03
2022-08-20T22:17:17.593Z,87.20
2022-08-20T22:19:47.001Z,87.31
2022-08-20T22:22:15.646Z,87.44
2022-08-20T22:24:45.548Z,87.66
2022-08-20T22:27:13.674Z,87.78
2022-08-20T22:29:41.738Z,87.77
2022-08-20T22:32:09.827Z,87.90
2022-08-20T22:34:38.278Z,88.00
2022-08-20T22:37:08.063Z,88.10
2022-08-20T22:39:36.057Z,88.20
2022-08-20T22:42:04.638Z,88.26
2022-08-20T22:44:32.599Z,88.36
2022-08-20T22:47:03.223Z,88.41
2022-08-20T22:49:33.662Z,88.47
2022-08-20T22:52:01.875Z,88.56
2022-08-20T22:54:31.166Z,88.61
2022-08-20T22:56:59.143Z,88.68
2022-08-20T22:59:27.579Z,88.74
2022-08-20T23:01:55.980Z,88.86
2022-08-20T23:04:26.429Z,88.98
2022-08-20T23:06:55.552Z,88.94
2022-08-20T23:09:24.741Z,89.03
2022-08-20T23:11:54.322Z,88.98
2022-08-20T23:14:22.857Z,88.97
2022-08-20T23:17:00.378Z,88.99
2022-08-20T23:19:28.475Z,88.96
2022-08-20T23:21:56.920Z,88.82
2022-08-20T23:24:24.938Z,88.67
2022-08-20T23:26:54.328Z,88.57
2022-08-20T23:29:25.418Z,88.37
2022-08-20T23:31:54.765Z,88.13
2022-08-20T23:34:23.372Z,87.93
2022-08-20T23:36:52.427Z,87.63
2022-08-20T23:39:20.950Z,87.44
2022-08-20T23:41:48.960Z,87.39
2022-08-20T23:44:26.655Z,87.28
2022-08-20T23:46:56.046Z,87.17
2022-08-20T23:49:24.036Z,87.13
2022-08-20T23:51:52.218Z,87.11
2022-08-20T23:54:20.256Z,87.05
2022-08-20T23:56:48.230Z,87.01
2022-08-20T23:59:16.237Z,87.01
